sensor_id;sensor_type;location;lat;lon;timestamp;temperature;humidity
12438;DHT22;6283;51.330;12.374;2024-03-22T00:00:21;8.40;1.00
12438;DHT22;6283;51.330;12.374;2024-03-22T00:02:47;8.30;1.00
12438;DHT22;6283;51.330;12.374;2024-03-22T00:05:15;8.50;1.00
12438;DHT22;6283;51.330;12.374;2024-03-22T00:07:42;8.20;1.00
12438;DHT22;6283;51.330;12.374;2024-03-22T00:10:07;8.20;1.00
12438;DHT22;6283;51.330;12.374;2024-03-22T00:12:33;8.30;1.40
12438;DHT22;6283;51.330;12.374;2024-03-22T00:14:58;8.40;1.00
12438;DHT22;6283;51.330;12.374;2024-03-22T00:17:24;8.10;1.00
12438;DHT22;6283;51.330;12.374;2024-03-22T00:19:50;7.90;1.00
12438;DHT22;6283;51.330;12.374;2024-03-22T00:22:15;8.20;1.00
12438;DHT22;6283;51.330;12.374;2024-03-22T00:24:41;8.10;1.00
12438;DHT22;6283;51.330;12.374;2024-03-22T00:27:07;7.90;1.00
12438;DHT22;6283;51.330;12.374;2024-03-22T00:29:32;8.00;1.00
12438;DHT22;6283;51.330;12.374;2024-03-22T00:31:58;8.00;1.00
12438;DHT22;6283;51.330;12.374;2024-03-22T00:34:24;8.00;1.00
12438;DHT22;6283;51.330;12.374;2024-03-22T00:36:49;7.90;1.00
12438;DHT22;6283;51.330;12.374;2024-03-22T00:39:16;8.20;1.00
12438;DHT22;6283;51.330;12.374;2024-03-22T00:41:42;8.10;1.00
12438;DHT22;6283;51.330;12.374;2024-03-22T00:44:07;7.90;1.00
12438;DHT22;6283;51.330;12.374;2024-03-22T00:46:33;8.00;1.00
12438;DHT22;6283;51.330;12.374;2024-03-22T00:48:59;7.80;1.00
12438;DHT22;6283;51.330;12.374;2024-03-22T00:51:25;8.00;1.00
12438;DHT22;6283;51.330;12.374;2024-03-22T00:53:52;7.90;1.00
12438;DHT22;6283;51.330;12.374;2024-03-22T00:56:18;7.90;1.00
12438;DHT22;6283;51.330;12.374;2024-03-22T00:58:43;8.10;1.00
12438;DHT22;6283;51.330;12.374;2024-03-22T01:01:09;8.00;1.00
12438;DHT22;6283;51.330;12.374;2024-03-22T01:03:34;8.00;1.00
12438;DHT22;6283;51.330;12.374;2024-03-22T01:06:01;7.90;1.00
12438;DHT22;6283;51.330;12.374;2024-03-22T01:08:27;7.90;1.00
12438;DHT22;6283;51.330;12.374;2024-03-22T01:10:53;7.80;1.00
12438;DHT22;6283;51.330;12.374;2024-03-22T01:13:19;7.90;1.00
12438;DHT22;6283;51.330;12.374;2024-03-22T01:15:44;7.80;1.00
12438;DHT22;6283;51.330;12.374;2024-03-22T01:18:11;8.10;1.00
12438;DHT22;6283;51.330;12.374;2024-03-22T01:20:37;8.10;1.00
12438;DHT22;6283;51.330;12.374;2024-03-22T01:23:03;7.90;1.00
12438;DHT22;6283;51.330;12.374;2024-03-22T01:25:29;7.90;1.00
12438;DHT22;6283;51.330;12.374;2024-03-22T01:27:55;7.90;1.00
12438;DHT22;6283;51.330;12.374;2024-03-22T01:30:21;7.90;1.00
12438;DHT22;6283;51.330;12.374;2024-03-22T01:32:47;7.90;1.00
12438;DHT22;6283;51.330;12.374;2024-03-22T01:35:12;7.90;1.00
12438;DHT22;6283;51.330;12.374;2024-03-22T01:37:38;7.90;1.00
12438;DHT22;6283;51.330;12.374;2024-03-22T01:40:04;7.90;1.00
12438;DHT22;6283;51.330;12.374;2024-03-22T01:42:30;7.80;1.00
12438;DHT22;6283;51.330;12.374;2024-03-22T01:44:56;7.90;1.00
12438;DHT22;6283;51.330;12.374;2024-03-22T01:47:22;7.80;1.00
12438;DHT22;6283;51.330;12.374;2024-03-22T01:49:49;7.80;1.00
12438;DHT22;6283;51.330;12.374;2024-03-22T01:52:16;7.90;1.00
12438;DHT22;6283;51.330;12.374;2024-03-22T01:54:41;7.80;1.00
12438;DHT22;6283;51.330;12.374;2024-03-22T01:57:08;7.90;1.00
12438;DHT22;6283;51.330;12.374;2024-03-22T01:59:34;7.80;1.00
12438;DHT22;6283;51.330;12.374;2024-03-22T02:02:00;7.90;1.00
12438;DHT22;6283;51.330;12.374;2024-03-22T02:04:25;7.60;1.00
12438;DHT22;6283;51.330;12.374;2024-03-22T02:06:51;7.90;1.00
12438;DHT22;6283;51.330;12.374;2024-03-22T02:09:17;7.90;1.00
12438;DHT22;6283;51.330;12.374;2024-03-22T02:11:43;7.80;1.00
12438;DHT22;6283;51.330;12.374;2024-03-22T02:14:08;7.60;1.00
12438;DHT22;6283;51.330;12.374;2024-03-22T02:16:34;7.90;1.00
12438;DHT22;6283;51.330;12.374;2024-03-22T02:19:00;7.90;1.00
12438;DHT22;6283;51.330;12.374;2024-03-22T02:21:25;7.80;1.00
12438;DHT22;6283;51.330;12.374;2024-03-22T02:23:51;7.70;1.00
12438;DHT22;6283;51.330;12.374;2024-03-22T02:26:16;7.60;1.00
12438;DHT22;6283;51.330;12.374;2024-03-22T02:28:42;7.50;1.00
12438;DHT22;6283;51.330;12.374;2024-03-22T02:31:08;7.60;1.00
12438;DHT22;6283;51.330;12.374;2024-03-22T02:33:33;7.60;1.00
12438;DHT22;6283;51.330;12.374;2024-03-22T02:35:59;7.50;1.00
12438;DHT22;6283;51.330;12.374;2024-03-22T02:38:24;7.70;1.00
12438;DHT22;6283;51.330;12.374;2024-03-22T02:40:52;7.70;1.00
12438;DHT22;6283;51.330;12.374;2024-03-22T02:43:18;7.80;1.00
12438;DHT22;6283;51.330;12.374;2024-03-22T02:45:44;7.90;1.00
12438;DHT22;6283;51.330;12.374;2024-03-22T02:48:10;7.90;1.00
12438;DHT22;6283;51.330;12.374;2024-03-22T02:50:36;8.00;1.00
12438;DHT22;6283;51.330;12.374;2024-03-22T02:53:03;8.00;1.00
12438;DHT22;6283;51.330;12.374;2024-03-22T02:55:29;8.00;1.00
12438;DHT22;6283;51.330;12.374;2024-03-22T02:57:56;7.80;1.00
12438;DHT22;6283;51.330;12.374;2024-03-22T03:00:22;7.70;1.00
12438;DHT22;6283;51.330;12.374;2024-03-22T03:02:48;8.00;1.00
12438;DHT22;6283;51.330;12.374;2024-03-22T03:05:13;7.90;1.00
12438;DHT22;6283;51.330;12.374;2024-03-22T03:07:39;7.90;1.00
12438;DHT22;6283;51.330;12.374;2024-03-22T03:10:06;7.90;1.00
12438;DHT22;6283;51.330;12.374;2024-03-22T03:12:32;7.90;1.00
12438;DHT22;6283;51.330;12.374;2024-03-22T03:14:57;8.10;1.00
12438;DHT22;6283;51.330;12.374;2024-03-22T03:17:23;7.70;1.00
12438;DHT22;6283;51.330;12.374;2024-03-22T03:19:49;7.80;1.00
12438;DHT22;6283;51.330;12.374;2024-03-22T03:22:14;7.90;1.00
12438;DHT22;6283;51.330;12.374;2024-03-22T03:24:40;7.90;1.00
12438;DHT22;6283;51.330;12.374;2024-03-22T03:27:06;7.80;1.00
12438;DHT22;6283;51.330;12.374;2024-03-22T03:29:32;7.60;1.00
12438;DHT22;6283;51.330;12.374;2024-03-22T03:31:58;7.70;1.00
12438;DHT22;6283;51.330;12.374;2024-03-22T03:34:23;8.00;1.00
12438;DHT22;6283;51.330;12.374;2024-03-22T03:36:49;7.90;1.00
12438;DHT22;6283;51.330;12.374;2024-03-22T03:39:15;8.10;1.00
12438;DHT22;6283;51.330;12.374;2024-03-22T03:41:40;7.70;1.00
12438;DHT22;6283;51.330;12.374;2024-03-22T03:44:06;7.90;1.00
12438;DHT22;6283;51.330;12.374;2024-03-22T03:46:31;7.80;1.00
12438;DHT22;6283;51.330;12.374;2024-03-22T03:48:57;7.70;1.00
12438;DHT22;6283;51.330;12.374;2024-03-22T03:51:23;8.10;1.00
12438;DHT22;6283;51.330;12.374;2024-03-22T03:53:48;7.80;1.00
12438;DHT22;6283;51.330;12.374;2024-03-22T03:56:14;7.80;1.00
12438;DHT22;6283;51.330;12.374;2024-03-22T03:58:39;7.80;1.00
12438;DHT22;6283;51.330;12.374;2024-03-22T04:01:08;7.70;1.00
12438;DHT22;6283;51.330;12.374;2024-03-22T04:03:35;7.60;1.00
12438;DHT22;6283;51.330;12.374;2024-03-22T04:06:01;7.90;1.00
12438;DHT22;6283;51.330;12.374;2024-03-22T04:08:27;7.80;1.00
12438;DHT22;6283;51.330;12.374;2024-03-22T04:10:53;7.70;1.00
12438;DHT22;6283;51.330;12.374;2024-03-22T04:13:25;7.60;1.00
12438;DHT22;6283;51.330;12.374;2024-03-22T04:15:51;7.80;1.00
12438;DHT22;6283;51.330;12.374;2024-03-22T04:18:16;7.80;1.00
12438;DHT22;6283;51.330;12.374;2024-03-22T04:20:42;7.70;1.00
12438;DHT22;6283;51.330;12.374;2024-03-22T04:23:09;7.80;1.00
12438;DHT22;6283;51.330;12.374;2024-03-22T04:25:35;8.10;1.00
12438;DHT22;6283;51.330;12.374;2024-03-22T04:28:00;7.80;1.00
12438;DHT22;6283;51.330;12.374;2024-03-22T04:30:26;7.70;1.00
12438;DHT22;6283;51.330;12.374;2024-03-22T04:32:51;7.60;1.00
12438;DHT22;6283;51.330;12.374;2024-03-22T04:35:17;7.90;1.00
12438;DHT22;6283;51.330;12.374;2024-03-22T04:37:43;7.90;1.00
12438;DHT22;6283;51.330;12.374;2024-03-22T04:40:09;8.10;1.00
12438;DHT22;6283;51.330;12.374;2024-03-22T04:42:35;7.80;1.00
12438;DHT22;6283;51.330;12.374;2024-03-22T04:45:01;8.10;1.00
12438;DHT22;6283;51.330;12.374;2024-03-22T04:47:26;7.90;1.00
12438;DHT22;6283;51.330;12.374;2024-03-22T04:49:52;7.70;1.00
12438;DHT22;6283;51.330;12.374;2024-03-22T04:52:18;7.80;1.00
12438;DHT22;6283;51.330;12.374;2024-03-22T04:54:43;7.80;1.00
12438;DHT22;6283;51.330;12.374;2024-03-22T04:57:09;7.80;1.00
12438;DHT22;6283;51.330;12.374;2024-03-22T04:59:34;8.00;1.00
12438;DHT22;6283;51.330;12.374;2024-03-22T05:02:00;7.70;1.00
12438;DHT22;6283;51.330;12.374;2024-03-22T05:04:25;7.90;1.00
12438;DHT22;6283;51.330;12.374;2024-03-22T05:06:51;7.90;1.00
12438;DHT22;6283;51.330;12.374;2024-03-22T05:09:17;7.70;1.00
12438;DHT22;6283;51.330;12.374;2024-03-22T05:11:42;7.90;1.00
12438;DHT22;6283;51.330;12.374;2024-03-22T05:14:08;7.90;1.00
12438;DHT22;6283;51.330;12.374;2024-03-22T05:16:34;8.10;1.00
12438;DHT22;6283;51.330;12.374;2024-03-22T05:18:59;7.80;1.00
12438;DHT22;6283;51.330;12.374;2024-03-22T05:21:25;7.80;1.00
12438;DHT22;6283;51.330;12.374;2024-03-22T05:23:50;7.70;1.00
12438;DHT22;6283;51.330;12.374;2024-03-22T05:26:16;7.90;1.00
12438;DHT22;6283;51.330;12.374;2024-03-22T05:28:43;7.80;1.00
12438;DHT22;6283;51.330;12.374;2024-03-22T05:31:09;8.00;1.00
12438;DHT22;6283;51.330;12.374;2024-03-22T05:33:34;8.10;1.00
12438;DHT22;6283;51.330;12.374;2024-03-22T05:36:00;7.90;1.00
12438;DHT22;6283;51.330;12.374;2024-03-22T05:38:26;8.10;1.00
12438;DHT22;6283;51.330;12.374;2024-03-22T05:40:51;7.90;1.00
12438;DHT22;6283;51.330;12.374;2024-03-22T05:43:17;8.10;1.00
12438;DHT22;6283;51.330;12.374;2024-03-22T05:45:42;7.80;1.00
12438;DHT22;6283;51.330;12.374;2024-03-22T05:48:08;7.90;1.00
12438;DHT22;6283;51.330;12.374;2024-03-22T05:50:33;8.20;1.00
12438;DHT22;6283;51.330;12.374;2024-03-22T05:52:59;8.10;1.00
12438;DHT22;6283;51.330;12.374;2024-03-22T05:55:25;8.10;1.00
12438;DHT22;6283;51.330;12.374;2024-03-22T05:57:52;8.20;1.00
12438;DHT22;6283;51.330;12.374;2024-03-22T06:00:18;8.40;1.00
12438;DHT22;6283;51.330;12.374;2024-03-22T06:02:44;8.50;1.00
12438;DHT22;6283;51.330;12.374;2024-03-22T06:05:09;8.40;1.00
12438;DHT22;6283;51.330;12.374;2024-03-22T06:07:35;8.50;1.00
12438;DHT22;6283;51.330;12.374;2024-03-22T06:10:08;8.60;1.00
12438;DHT22;6283;51.330;12.374;2024-03-22T06:12:33;8.40;1.00
12438;DHT22;6283;51.330;12.374;2024-03-22T06:14:59;8.50;1.00
12438;DHT22;6283;51.330;12.374;2024-03-22T06:17:24;8.60;1.00
12438;DHT22;6283;51.330;12.374;2024-03-22T06:19:50;8.70;1.00
12438;DHT22;6283;51.330;12.374;2024-03-22T06:22:16;8.70;1.00
12438;DHT22;6283;51.330;12.374;2024-03-22T06:24:42;8.70;1.00
12438;DHT22;6283;51.330;12.374;2024-03-22T06:27:09;8.80;99.90
12438;DHT22;6283;51.330;12.374;2024-03-22T06:29:35;8.80;1.00
12438;DHT22;6283;51.330;12.374;2024-03-22T06:32:00;8.80;1.00
12438;DHT22;6283;51.330;12.374;2024-03-22T06:34:26;8.80;1.00
12438;DHT22;6283;51.330;12.374;2024-03-22T06:36:52;8.90;99.90
12438;DHT22;6283;51.330;12.374;2024-03-22T06:39:17;9.20;1.00
12438;DHT22;6283;51.330;12.374;2024-03-22T06:41:43;9.10;1.40
12438;DHT22;6283;51.330;12.374;2024-03-22T06:44:08;9.20;1.00
12438;DHT22;6283;51.330;12.374;2024-03-22T06:46:37;9.20;99.90
12438;DHT22;6283;51.330;12.374;2024-03-22T06:49:03;9.30;99.90
12438;DHT22;6283;51.330;12.374;2024-03-22T06:51:28;9.30;99.90
12438;DHT22;6283;51.330;12.374;2024-03-22T06:53:54;9.30;99.90
12438;DHT22;6283;51.330;12.374;2024-03-22T06:56:19;9.40;99.90
12438;DHT22;6283;51.330;12.374;2024-03-22T06:58:45;9.40;99.90
12438;DHT22;6283;51.330;12.374;2024-03-22T07:01:11;9.30;99.90
12438;DHT22;6283;51.330;12.374;2024-03-22T07:03:36;9.60;99.90
12438;DHT22;6283;51.330;12.374;2024-03-22T07:06:02;9.60;1.40
12438;DHT22;6283;51.330;12.374;2024-03-22T07:08:28;9.70;99.90
12438;DHT22;6283;51.330;12.374;2024-03-22T07:10:54;9.60;99.90
12438;DHT22;6283;51.330;12.374;2024-03-22T07:13:20;9.70;99.90
12438;DHT22;6283;51.330;12.374;2024-03-22T07:15:46;9.80;99.90
12438;DHT22;6283;51.330;12.374;2024-03-22T07:18:13;9.90;1.00
12438;DHT22;6283;51.330;12.374;2024-03-22T07:20:39;9.80;1.00
12438;DHT22;6283;51.330;12.374;2024-03-22T07:23:04;9.80;99.90
12438;DHT22;6283;51.330;12.374;2024-03-22T07:25:30;9.80;99.90
12438;DHT22;6283;51.330;12.374;2024-03-22T07:27:56;10.20;99.90
12438;DHT22;6283;51.330;12.374;2024-03-22T07:30:22;10.10;99.90
12438;DHT22;6283;51.330;12.374;2024-03-22T07:32:48;9.90;99.90
12438;DHT22;6283;51.330;12.374;2024-03-22T07:35:13;10.10;1.00
12438;DHT22;6283;51.330;12.374;2024-03-22T07:37:39;10.20;99.90
12438;DHT22;6283;51.330;12.374;2024-03-22T07:40:05;10.10;99.90
12438;DHT22;6283;51.330;12.374;2024-03-22T07:42:31;10.40;99.90
12438;DHT22;6283;51.330;12.374;2024-03-22T07:44:57;10.40;99.90
12438;DHT22;6283;51.330;12.374;2024-03-22T07:47:23;10.30;99.90
12438;DHT22;6283;51.330;12.374;2024-03-22T07:49:48;10.20;99.90
12438;DHT22;6283;51.330;12.374;2024-03-22T07:52:14;10.30;99.90
12438;DHT22;6283;51.330;12.374;2024-03-22T07:54:43;10.30;99.90
12438;DHT22;6283;51.330;12.374;2024-03-22T07:57:08;10.70;99.90
12438;DHT22;6283;51.330;12.374;2024-03-22T07:59:36;10.40;99.90
12438;DHT22;6283;51.330;12.374;2024-03-22T08:02:02;10.50;99.90
12438;DHT22;6283;51.330;12.374;2024-03-22T08:04:28;10.90;1.00
12438;DHT22;6283;51.330;12.374;2024-03-22T08:06:54;10.90;99.90
12438;DHT22;6283;51.330;12.374;2024-03-22T08:09:20;10.90;99.90
12438;DHT22;6283;51.330;12.374;2024-03-22T08:11:45;11.00;99.90
12438;DHT22;6283;51.330;12.374;2024-03-22T08:14:11;11.20;99.90
12438;DHT22;6283;51.330;12.374;2024-03-22T08:16:36;11.20;99.90
12438;DHT22;6283;51.330;12.374;2024-03-22T08:19:02;11.20;99.90
12438;DHT22;6283;51.330;12.374;2024-03-22T08:21:28;11.10;99.90
12438;DHT22;6283;51.330;12.374;2024-03-22T08:23:54;11.40;99.90
12438;DHT22;6283;51.330;12.374;2024-03-22T08:26:20;11.20;99.90
12438;DHT22;6283;51.330;12.374;2024-03-22T08:28:46;11.60;99.90
12438;DHT22;6283;51.330;12.374;2024-03-22T08:31:13;11.50;99.90
12438;DHT22;6283;51.330;12.374;2024-03-22T08:33:38;11.80;99.90
12438;DHT22;6283;51.330;12.374;2024-03-22T08:36:04;11.70;99.90
12438;DHT22;6283;51.330;12.374;2024-03-22T08:38:30;11.50;99.90
12438;DHT22;6283;51.330;12.374;2024-03-22T08:40:55;12.00;99.90
12438;DHT22;6283;51.330;12.374;2024-03-22T08:43:21;12.00;99.90
12438;DHT22;6283;51.330;12.374;2024-03-22T08:45:54;12.00;99.90
12438;DHT22;6283;51.330;12.374;2024-03-22T08:48:21;12.10;99.90
12438;DHT22;6283;51.330;12.374;2024-03-22T08:50:46;12.00;99.90
12438;DHT22;6283;51.330;12.374;2024-03-22T08:53:12;12.20;99.90
12438;DHT22;6283;51.330;12.374;2024-03-22T08:55:38;12.30;99.90
12438;DHT22;6283;51.330;12.374;2024-03-22T08:58:04;12.40;99.90
12438;DHT22;6283;51.330;12.374;2024-03-22T09:00:30;12.30;99.90
12438;DHT22;6283;51.330;12.374;2024-03-22T09:02:55;12.20;99.90
12438;DHT22;6283;51.330;12.374;2024-03-22T09:05:21;12.30;99.90
12438;DHT22;6283;51.330;12.374;2024-03-22T09:07:47;12.40;99.90
12438;DHT22;6283;51.330;12.374;2024-03-22T09:10:13;12.50;99.90
12438;DHT22;6283;51.330;12.374;2024-03-22T09:12:39;12.50;99.90
12438;DHT22;6283;51.330;12.374;2024-03-22T09:15:05;12.80;99.90
12438;DHT22;6283;51.330;12.374;2024-03-22T09:17:31;12.60;99.90
12438;DHT22;6283;51.330;12.374;2024-03-22T09:19:56;12.70;99.90
12438;DHT22;6283;51.330;12.374;2024-03-22T09:22:22;12.90;99.90
12438;DHT22;6283;51.330;12.374;2024-03-22T09:24:48;12.90;99.90
12438;DHT22;6283;51.330;12.374;2024-03-22T09:27:14;12.90;99.90
12438;DHT22;6283;51.330;12.374;2024-03-22T09:29:39;13.20;99.90
12438;DHT22;6283;51.330;12.374;2024-03-22T09:32:05;13.20;99.90
12438;DHT22;6283;51.330;12.374;2024-03-22T09:34:31;13.50;99.90
12438;DHT22;6283;51.330;12.374;2024-03-22T09:36:57;13.40;99.90
12438;DHT22;6283;51.330;12.374;2024-03-22T09:39:23;13.40;99.90
12438;DHT22;6283;51.330;12.374;2024-03-22T09:41:50;13.70;99.90
12438;DHT22;6283;51.330;12.374;2024-03-22T09:44:18;13.70;99.90
12438;DHT22;6283;51.330;12.374;2024-03-22T09:46:46;13.60;99.90
12438;DHT22;6283;51.330;12.374;2024-03-22T09:49:12;13.70;99.90
12438;DHT22;6283;51.330;12.374;2024-03-22T09:51:43;13.90;99.90
12438;DHT22;6283;51.330;12.374;2024-03-22T09:54:11;14.00;99.90
12438;DHT22;6283;51.330;12.374;2024-03-22T09:56:40;14.10;99.90
12438;DHT22;6283;51.330;12.374;2024-03-22T09:59:07;14.00;99.90
12438;DHT22;6283;51.330;12.374;2024-03-22T10:01:34;14.00;99.90
12438;DHT22;6283;51.330;12.374;2024-03-22T10:04:00;14.00;99.90
12438;DHT22;6283;51.330;12.374;2024-03-22T10:06:25;14.00;99.90
12438;DHT22;6283;51.330;12.374;2024-03-22T10:08:51;14.00;99.90
12438;DHT22;6283;51.330;12.374;2024-03-22T10:11:16;14.20;99.90
12438;DHT22;6283;51.330;12.374;2024-03-22T10:13:43;14.10;99.90
12438;DHT22;6283;51.330;12.374;2024-03-22T10:16:10;14.00;99.90
12438;DHT22;6283;51.330;12.374;2024-03-22T10:18:36;14.10;99.90
12438;DHT22;6283;51.330;12.374;2024-03-22T10:21:02;13.90;99.90
12438;DHT22;6283;51.330;12.374;2024-03-22T10:23:29;13.90;99.90
12438;DHT22;6283;51.330;12.374;2024-03-22T10:25:59;14.20;99.90
12438;DHT22;6283;51.330;12.374;2024-03-22T10:28:25;14.30;99.90
12438;DHT22;6283;51.330;12.374;2024-03-22T10:30:51;14.50;99.90
12438;DHT22;6283;51.330;12.374;2024-03-22T10:33:21;14.30;99.90
12438;DHT22;6283;51.330;12.374;2024-03-22T10:35:53;14.50;99.90
12438;DHT22;6283;51.330;12.374;2024-03-22T10:38:20;14.40;99.90
12438;DHT22;6283;51.330;12.374;2024-03-22T10:40:46;14.40;99.90
12438;DHT22;6283;51.330;12.374;2024-03-22T10:43:13;14.40;99.90
12438;DHT22;6283;51.330;12.374;2024-03-22T10:45:40;14.60;99.90
12438;DHT22;6283;51.330;12.374;2024-03-22T10:48:10;14.50;99.90
12438;DHT22;6283;51.330;12.374;2024-03-22T10:50:39;14.60;99.90
12438;DHT22;6283;51.330;12.374;2024-03-22T10:53:09;14.60;99.90
12438;DHT22;6283;51.330;12.374;2024-03-22T10:55:43;14.70;99.90
12438;DHT22;6283;51.330;12.374;2024-03-22T10:58:21;14.80;99.90
12438;DHT22;6283;51.330;12.374;2024-03-22T11:00:47;14.60;99.90
12438;DHT22;6283;51.330;12.374;2024-03-22T11:03:13;14.70;99.90
12438;DHT22;6283;51.330;12.374;2024-03-22T11:05:49;15.20;99.90
12438;DHT22;6283;51.330;12.374;2024-03-22T11:08:28;15.20;99.90
12438;DHT22;6283;51.330;12.374;2024-03-22T11:10:56;15.20;99.90
12438;DHT22;6283;51.330;12.374;2024-03-22T11:13:22;15.30;99.90
12438;DHT22;6283;51.330;12.374;2024-03-22T11:15:51;15.30;99.90
12438;DHT22;6283;51.330;12.374;2024-03-22T11:18:17;15.40;99.90
12438;DHT22;6283;51.330;12.374;2024-03-22T11:20:43;15.40;99.90
12438;DHT22;6283;51.330;12.374;2024-03-22T11:23:10;15.40;99.90
12438;DHT22;6283;51.330;12.374;2024-03-22T11:25:36;15.30;99.90
12438;DHT22;6283;51.330;12.374;2024-03-22T11:28:01;15.30;99.90
12438;DHT22;6283;51.330;12.374;2024-03-22T11:30:31;15.20;99.90
12438;DHT22;6283;51.330;12.374;2024-03-22T11:32:57;15.40;99.90
12438;DHT22;6283;51.330;12.374;2024-03-22T11:35:23;15.40;99.90
12438;DHT22;6283;51.330;12.374;2024-03-22T11:37:50;15.40;99.90
12438;DHT22;6283;51.330;12.374;2024-03-22T11:40:16;15.50;99.90
12438;DHT22;6283;51.330;12.374;2024-03-22T11:42:45;15.60;99.90
12438;DHT22;6283;51.330;12.374;2024-03-22T11:45:12;15.70;99.90
12438;DHT22;6283;51.330;12.374;2024-03-22T11:47:39;15.70;99.90
12438;DHT22;6283;51.330;12.374;2024-03-22T11:50:05;15.70;99.90
12438;DHT22;6283;51.330;12.374;2024-03-22T11:52:31;15.80;99.90
12438;DHT22;6283;51.330;12.374;2024-03-22T11:54:57;15.80;99.90
12438;DHT22;6283;51.330;12.374;2024-03-22T11:57:23;15.70;99.90
12438;DHT22;6283;51.330;12.374;2024-03-22T11:59:50;15.80;99.90
12438;DHT22;6283;51.330;12.374;2024-03-22T12:02:16;15.80;99.90
12438;DHT22;6283;51.330;12.374;2024-03-22T12:04:47;15.80;99.90
12438;DHT22;6283;51.330;12.374;2024-03-22T12:07:14;15.80;99.90
12438;DHT22;6283;51.330;12.374;2024-03-22T12:09:41;15.80;99.90
12438;DHT22;6283;51.330;12.374;2024-03-22T12:12:09;15.90;99.90
12438;DHT22;6283;51.330;12.374;2024-03-22T12:14:35;15.90;99.90
12438;DHT22;6283;51.330;12.374;2024-03-22T12:17:05;16.10;99.90
12438;DHT22;6283;51.330;12.374;2024-03-22T12:19:31;16.00;99.90
12438;DHT22;6283;51.330;12.374;2024-03-22T12:21:57;16.10;99.90
12438;DHT22;6283;51.330;12.374;2024-03-22T12:24:23;16.10;99.90
12438;DHT22;6283;51.330;12.374;2024-03-22T12:26:50;15.80;99.90
12438;DHT22;6283;51.330;12.374;2024-03-22T12:29:16;16.10;99.90
12438;DHT22;6283;51.330;12.374;2024-03-22T12:31:42;16.10;99.90
12438;DHT22;6283;51.330;12.374;2024-03-22T12:34:08;16.20;99.90
12438;DHT22;6283;51.330;12.374;2024-03-22T12:36:34;16.20;99.90
12438;DHT22;6283;51.330;12.374;2024-03-22T12:39:00;16.30;99.90
12438;DHT22;6283;51.330;12.374;2024-03-22T12:41:26;16.40;99.90
12438;DHT22;6283;51.330;12.374;2024-03-22T12:43:52;16.50;99.90
12438;DHT22;6283;51.330;12.374;2024-03-22T12:46:18;16.50;99.90
12438;DHT22;6283;51.330;12.374;2024-03-22T12:48:43;16.50;99.90
12438;DHT22;6283;51.330;12.374;2024-03-22T12:51:09;16.60;99.90
12438;DHT22;6283;51.330;12.374;2024-03-22T12:53:35;16.70;99.90
12438;DHT22;6283;51.330;12.374;2024-03-22T12:56:00;16.80;99.90
12438;DHT22;6283;51.330;12.374;2024-03-22T12:58:28;16.90;99.90
12438;DHT22;6283;51.330;12.374;2024-03-22T13:00:54;17.00;99.90
12438;DHT22;6283;51.330;12.374;2024-03-22T13:03:19;16.90;99.90
12438;DHT22;6283;51.330;12.374;2024-03-22T13:05:45;16.90;99.90
12438;DHT22;6283;51.330;12.374;2024-03-22T13:08:10;17.00;99.90
12438;DHT22;6283;51.330;12.374;2024-03-22T13:10:36;16.90;99.90
12438;DHT22;6283;51.330;12.374;2024-03-22T13:13:02;16.90;99.90
12438;DHT22;6283;51.330;12.374;2024-03-22T13:15:28;16.90;99.90
12438;DHT22;6283;51.330;12.374;2024-03-22T13:17:55;17.00;99.90
12438;DHT22;6283;51.330;12.374;2024-03-22T13:20:21;17.10;99.90
12438;DHT22;6283;51.330;12.374;2024-03-22T13:22:47;17.30;99.90
12438;DHT22;6283;51.330;12.374;2024-03-22T13:25:13;17.40;99.90
12438;DHT22;6283;51.330;12.374;2024-03-22T13:27:38;17.40;99.90
12438;DHT22;6283;51.330;12.374;2024-03-22T13:30:07;17.50;99.90
12438;DHT22;6283;51.330;12.374;2024-03-22T13:32:39;17.50;99.90
12438;DHT22;6283;51.330;12.374;2024-03-22T13:35:06;17.50;91.60
12438;DHT22;6283;51.330;12.374;2024-03-22T13:37:32;17.50;99.90
12438;DHT22;6283;51.330;12.374;2024-03-22T13:39:57;17.50;99.90
12438;DHT22;6283;51.330;12.374;2024-03-22T13:42:23;17.50;99.90
12438;DHT22;6283;51.330;12.374;2024-03-22T13:44:49;17.50;99.90
12438;DHT22;6283;51.330;12.374;2024-03-22T13:47:15;17.50;93.90
12438;DHT22;6283;51.330;12.374;2024-03-22T13:49:40;17.40;84.30
12438;DHT22;6283;51.330;12.374;2024-03-22T13:52:09;17.30;99.90
12438;DHT22;6283;51.330;12.374;2024-03-22T13:54:35;17.30;99.90
12438;DHT22;6283;51.330;12.374;2024-03-22T13:57:01;17.40;99.90
12438;DHT22;6283;51.330;12.374;2024-03-22T13:59:30;17.50;99.90
12438;DHT22;6283;51.330;12.374;2024-03-22T14:01:56;17.50;99.90
12438;DHT22;6283;51.330;12.374;2024-03-22T14:04:23;17.50;99.90
12438;DHT22;6283;51.330;12.374;2024-03-22T14:06:49;17.40;99.90
12438;DHT22;6283;51.330;12.374;2024-03-22T14:09:15;17.20;99.90
12438;DHT22;6283;51.330;12.374;2024-03-22T14:11:41;17.00;99.90
12438;DHT22;6283;51.330;12.374;2024-03-22T14:14:11;17.00;99.90
12438;DHT22;6283;51.330;12.374;2024-03-22T14:16:40;16.90;99.90
12438;DHT22;6283;51.330;12.374;2024-03-22T14:19:07;16.80;99.90
12438;DHT22;6283;51.330;12.374;2024-03-22T14:21:34;16.80;99.90
12438;DHT22;6283;51.330;12.374;2024-03-22T14:24:00;16.80;99.90
12438;DHT22;6283;51.330;12.374;2024-03-22T14:26:25;16.80;99.90
12438;DHT22;6283;51.330;12.374;2024-03-22T14:28:51;16.70;99.90
12438;DHT22;6283;51.330;12.374;2024-03-22T14:31:18;16.60;99.90
12438;DHT22;6283;51.330;12.374;2024-03-22T14:33:44;16.60;99.90
12438;DHT22;6283;51.330;12.374;2024-03-22T14:36:10;16.60;99.90
12438;DHT22;6283;51.330;12.374;2024-03-22T14:38:37;16.50;99.90
12438;DHT22;6283;51.330;12.374;2024-03-22T14:41:03;16.50;99.90
12438;DHT22;6283;51.330;12.374;2024-03-22T14:43:29;16.40;99.90
12438;DHT22;6283;51.330;12.374;2024-03-22T14:46:00;16.40;99.90
12438;DHT22;6283;51.330;12.374;2024-03-22T14:48:26;16.30;99.90
12438;DHT22;6283;51.330;12.374;2024-03-22T14:50:52;16.30;99.90
12438;DHT22;6283;51.330;12.374;2024-03-22T14:53:19;16.20;99.90
12438;DHT22;6283;51.330;12.374;2024-03-22T14:55:56;16.10;99.90
12438;DHT22;6283;51.330;12.374;2024-03-22T14:58:29;16.10;99.90
12438;DHT22;6283;51.330;12.374;2024-03-22T15:01:02;16.00;99.90
12438;DHT22;6283;51.330;12.374;2024-03-22T15:03:28;16.00;99.90
12438;DHT22;6283;51.330;12.374;2024-03-22T15:05:55;15.90;99.90
12438;DHT22;6283;51.330;12.374;2024-03-22T15:08:23;15.90;99.90
12438;DHT22;6283;51.330;12.374;2024-03-22T15:10:49;15.80;99.90
12438;DHT22;6283;51.330;12.374;2024-03-22T15:13:16;15.70;99.90
12438;DHT22;6283;51.330;12.374;2024-03-22T15:15:42;15.70;99.90
12438;DHT22;6283;51.330;12.374;2024-03-22T15:18:09;15.60;99.90
12438;DHT22;6283;51.330;12.374;2024-03-22T15:20:35;15.60;99.90
12438;DHT22;6283;51.330;12.374;2024-03-22T15:23:01;15.30;99.90
12438;DHT22;6283;51.330;12.374;2024-03-22T15:25:28;15.50;99.90
12438;DHT22;6283;51.330;12.374;2024-03-22T15:27:54;15.50;99.90
12438;DHT22;6283;51.330;12.374;2024-03-22T15:30:19;15.50;99.90
12438;DHT22;6283;51.330;12.374;2024-03-22T15:32:46;15.50;99.90
12438;DHT22;6283;51.330;12.374;2024-03-22T15:35:11;15.70;99.90
12438;DHT22;6283;51.330;12.374;2024-03-22T15:37:40;15.50;99.90